sensor_id;sensor_type;location;lat;lon;timestamp;pressure;altitude;pressure_sealevel;temperature;humidity
6020;BME280;3038;51.122;6.840;2024-01-07T06:02:54;101437.84;;;2.48;100.00
6020;BME280;3038;51.122;6.840;2024-01-07T06:05:19;101445.66;;;2.34;100.00
6020;BME280;3038;51.122;6.840;2024-01-07T06:07:47;101448.06;;;2.23;100.00
6020;BME280;3038;51.122;6.840;2024-01-07T06:10:12;101456.38;;;2.15;100.00
6020;BME280;3038;51.122;6.840;2024-01-07T06:12:37;101460.84;;;2.13;100.00
6020;BME280;3038;51.122;6.840;2024-01-07T06:15:05;101454.31;;;2.20;100.00
6020;BME280;3038;51.122;6.840;2024-01-07T06:17:31;101462.28;;;2.19;100.00
6020;BME280;3038;51.122;6.840;2024-01-07T06:19:56;101456.84;;;2.22;100.00
6020;BME280;3038;51.122;6.840;2024-01-07T06:22:22;101465.53;;;2.22;100.00
6020;BME280;3038;51.122;6.840;2024-01-07T06:24:47;101465.63;;;2.21;100.00
6020;BME280;3038;51.122;6.840;2024-01-07T06:27:13;101475.28;;;2.20;100.00
6020;BME280;3038;51.122;6.840;2024-01-07T06:29:38;101472.41;;;2.25;100.00
6020;BME280;3038;51.122;6.840;2024-01-07T06:32:06;101487.44;;;2.21;100.00
6020;BME280;3038;51.122;6.840;2024-01-07T06:34:31;101488.63;;;2.16;100.00
6020;BME280;3038;51.122;6.840;2024-01-07T06:36:58;101489.72;;;2.12;100.00
6020;BME280;3038;51.122;6.840;2024-01-07T06:39:24;101494.06;;;1.97;100.00
6020;BME280;3038;51.122;6.840;2024-01-07T06:41:52;101494.75;;;2.00;100.00
6020;BME280;3038;51.122;6.840;2024-01-07T06:44:17;101504.97;;;2.05;100.00
6020;BME280;3038;51.122;6.840;2024-01-07T06:46:43;101511.97;;;2.04;100.00
6020;BME280;3038;51.122;6.840;2024-01-07T06:49:08;101512.66;;;2.08;100.00
6020;BME280;3038;51.122;6.840;2024-01-07T06:51:37;101512.31;;;1.98;100.00
6020;BME280;3038;51.122;6.840;2024-01-07T06:54:10;101521.53;;;1.90;100.00
6020;BME280;3038;51.122;6.840;2024-01-07T06:56:39;101520.69;;;1.89;100.00
6020;BME280;3038;51.122;6.840;2024-01-07T06:59:06;101524.81;;;1.93;100.00
6020;BME280;3038;51.122;6.840;2024-01-07T07:01:32;101525.72;;;1.92;100.00
6020;BME280;3038;51.122;6.840;2024-01-07T07:03:58;101531.75;;;1.94;100.00
6020;BME280;3038;51.122;6.840;2024-01-07T07:06:23;101531.75;;;1.94;100.00
6020;BME280;3038;51.122;6.840;2024-01-07T07:08:49;101541.88;;;2.00;100.00
6020;BME280;3038;51.122;6.840;2024-01-07T07:11:16;101543.22;;;2.08;100.00
6020;BME280;3038;51.122;6.840;2024-01-07T07:13:41;101541.28;;;2.11;100.00
6020;BME280;3038;51.122;6.840;2024-01-07T07:16:12;101546.63;;;2.10;100.00
6020;BME280;3038;51.122;6.840;2024-01-07T07:18:37;101544.50;;;2.00;100.00
6020;BME280;3038;51.122;6.840;2024-01-07T07:21:03;101553.28;;;1.99;100.00
6020;BME280;3038;51.122;6.840;2024-01-07T07:23:31;101553.94;;;2.03;100.00
6020;BME280;3038;51.122;6.840;2024-01-07T07:25:56;101557.75;;;1.97;100.00
6020;BME280;3038;51.122;6.840;2024-01-07T07:28:22;101569.16;;;1.96;100.00
6020;BME280;3038;51.122;6.840;2024-01-07T07:30:47;101561.81;;;2.03;100.00
6020;BME280;3038;51.122;6.840;2024-01-07T07:33:12;101568.06;;;2.00;100.00
6020;BME280;3038;51.122;6.840;2024-01-07T07:35:39;101574.31;;;1.98;100.00
6020;BME280;3038;51.122;6.840;2024-01-07T07:38:09;101573.31;;;2.00;100.00
6020;BME280;3038;51.122;6.840;2024-01-07T07:40:34;101579.97;;;2.06;100.00
6020;BME280;3038;51.122;6.840;2024-01-07T07:42:59;101590.88;;;1.98;100.00
6020;BME280;3038;51.122;6.840;2024-01-07T07:45:25;101592.47;;;2.01;100.00
6020;BME280;3038;51.122;6.840;2024-01-07T07:47:50;101601.19;;;2.01;100.00
6020;BME280;3038;51.122;6.840;2024-01-07T07:50:16;101597.88;;;1.98;100.00
6020;BME280;3038;51.122;6.840;2024-01-07T07:52:44;101598.66;;;2.00;100.00
6020;BME280;3038;51.122;6.840;2024-01-07T07:55:10;101605.66;;;1.99;100.00
6020;BME280;3038;51.122;6.840;2024-01-07T07:57:36;101607.25;;;2.02;100.00
6020;BME280;3038;51.122;6.840;2024-01-07T08:00:01;101609.13;;;2.00;100.00
6020;BME280;3038;51.122;6.840;2024-01-07T08:02:27;101612.75;;;1.97;100.00
6020;BME280;3038;51.122;6.840;2024-01-07T08:04:52;101611.22;;;1.93;100.00
6020;BME280;3038;51.122;6.840;2024-01-07T08:07:18;101615.53;;;1.94;100.00
6020;BME280;3038;51.122;6.840;2024-01-07T08:09:43;101619.25;;;1.90;100.00
6020;BME280;3038;51.122;6.840;2024-01-07T08:12:08;101625.47;;;1.88;100.00
6020;BME280;3038;51.122;6.840;2024-01-07T08:14:34;101627.78;;;1.94;100.00
6020;BME280;3038;51.122;6.840;2024-01-07T08:16:59;101630.31;;;1.95;100.00
6020;BME280;3038;51.122;6.840;2024-01-07T08:19:27;101629.19;;;1.84;100.00
6020;BME280;3038;51.122;6.840;2024-01-07T08:21:52;101645.91;;;1.81;100.00
6020;BME280;3038;51.122;6.840;2024-01-07T08:24:20;101639.50;;;1.87;100.00
6020;BME280;3038;51.122;6.840;2024-01-07T08:26:45;101645.59;;;1.87;100.00
6020;BME280;3038;51.122;6.840;2024-01-07T08:29:10;101655.91;;;1.90;100.00
6020;BME280;3038;51.122;6.840;2024-01-07T08:31:36;101657.69;;;1.90;100.00
6020;BME280;3038;51.122;6.840;2024-01-07T08:34:04;101672.69;;;1.86;100.00
6020;BME280;3038;51.122;6.840;2024-01-07T08:36:29;101667.72;;;1.82;100.00
6020;BME280;3038;51.122;6.840;2024-01-07T08:38:55;101679.88;;;1.83;100.00
6020;BME280;3038;51.122;6.840;2024-01-07T08:41:22;101672.09;;;1.81;100.00
6020;BME280;3038;51.122;6.840;2024-01-07T08:43:47;101685.03;;;1.84;100.00
6020;BME280;3038;51.122;6.840;2024-01-07T08:46:13;101681.31;;;1.88;100.00
6020;BME280;3038;51.122;6.840;2024-01-07T08:48:41;101689.78;;;1.93;100.00
6020;BME280;3038;51.122;6.840;2024-01-07T08:51:06;101686.50;;;1.90;100.00
6020;BME280;3038;51.122;6.840;2024-01-07T08:53:32;101684.13;;;1.85;100.00
6020;BME280;3038;51.122;6.840;2024-01-07T08:55:57;101700.44;;;1.90;100.00
6020;BME280;3038;51.122;6.840;2024-01-07T08:58:22;101695.94;;;1.92;100.00
6020;BME280;3038;51.122;6.840;2024-01-07T09:00:48;101705.09;;;2.01;100.00
6020;BME280;3038;51.122;6.840;2024-01-07T09:03:13;101699.00;;;2.00;100.00
6020;BME280;3038;51.122;6.840;2024-01-07T09:05:38;101697.13;;;1.87;100.00
6020;BME280;3038;51.122;6.840;2024-01-07T09:08:04;101705.22;;;1.82;100.00
6020;BME280;3038;51.122;6.840;2024-01-07T09:10:31;101707.06;;;1.80;100.00
6020;BME280;3038;51.122;6.840;2024-01-07T09:12:56;101711.97;;;1.86;100.00
6020;BME280;3038;51.122;6.840;2024-01-07T09:15:24;101721.69;;;1.84;100.00
6020;BME280;3038;51.122;6.840;2024-01-07T09:17:49;101715.53;;;1.85;100.00
6020;BME280;3038;51.122;6.840;2024-01-07T09:20:15;101720.81;;;1.84;100.00
6020;BME280;3038;51.122;6.840;2024-01-07T09:22:40;101721.38;;;1.90;100.00
6020;BME280;3038;51.122;6.840;2024-01-07T09:25:06;101717.53;;;1.80;100.00
6020;BME280;3038;51.122;6.840;2024-01-07T09:27:32;101724.47;;;1.81;100.00
6020;BME280;3038;51.122;6.840;2024-01-07T09:29:58;101726.00;;;1.85;100.00
6020;BME280;3038;51.122;6.840;2024-01-07T09:32:24;101736.47;;;1.85;99.98
6020;BME280;3038;51.122;6.840;2024-01-07T09:34:49;101727.09;;;1.81;100.00
6020;BME280;3038;51.122;6.840;2024-01-07T09:37:16;101741.03;;;1.82;100.00
6020;BME280;3038;51.122;6.840;2024-01-07T09:39:44;101733.72;;;1.71;100.00
6020;BME280;3038;51.122;6.840;2024-01-07T09:42:16;101739.94;;;1.68;100.00
6020;BME280;3038;51.122;6.840;2024-01-07T09:44:43;101737.72;;;1.61;100.00
6020;BME280;3038;51.122;6.840;2024-01-07T09:47:15;101748.19;;;1.61;100.00
6020;BME280;3038;51.122;6.840;2024-01-07T09:49:41;101746.66;;;1.57;100.00
6020;BME280;3038;51.122;6.840;2024-01-07T09:52:09;101750.34;;;1.52;100.00
6020;BME280;3038;51.122;6.840;2024-01-07T09:54:38;101755.03;;;1.63;100.00
6020;BME280;3038;51.122;6.840;2024-01-07T09:57:05;101757.72;;;1.62;100.00
6020;BME280;3038;51.122;6.840;2024-01-07T09:59:36;101764.44;;;1.67;100.00
6020;BME280;3038;51.122;6.840;2024-01-07T10:02:04;101765.13;;;1.71;100.00
6020;BME280;3038;51.122;6.840;2024-01-07T10:04:30;101763.25;;;1.73;100.00
6020;BME280;3038;51.122;6.840;2024-01-07T10:06:58;101770.19;;;1.74;100.00
6020;BME280;3038;51.122;6.840;2024-01-07T10:09:24;101775.28;;;1.77;100.00
6020;BME280;3038;51.122;6.840;2024-01-07T10:11:53;101766.06;;;1.70;100.00
6020;BME280;3038;51.122;6.840;2024-01-07T10:14:18;101776.81;;;1.64;100.00
6020;BME280;3038;51.122;6.840;2024-01-07T10:16:47;101774.19;;;1.64;100.00
6020;BME280;3038;51.122;6.840;2024-01-07T10:19:21;101774.81;;;1.69;100.00
6020;BME280;3038;51.122;6.840;2024-01-07T10:21:58;101781.44;;;1.59;100.00
6020;BME280;3038;51.122;6.840;2024-01-07T10:24:24;101777.91;;;1.60;100.00
6020;BME280;3038;51.122;6.840;2024-01-07T10:26:50;101783.69;;;1.66;100.00
6020;BME280;3038;51.122;6.840;2024-01-07T10:29:15;101782.13;;;1.62;100.00
6020;BME280;3038;51.122;6.840;2024-01-07T10:31:43;101791.75;;;1.62;100.00
6020;BME280;3038;51.122;6.840;2024-01-07T10:34:13;101795.31;;;1.61;100.00
6020;BME280;3038;51.122;6.840;2024-01-07T10:36:39;101793.63;;;1.60;100.00
6020;BME280;3038;51.122;6.840;2024-01-07T10:39:05;101788.38;;;1.60;99.60
6020;BME280;3038;51.122;6.840;2024-01-07T10:41:31;101789.28;;;1.59;100.00
6020;BME280;3038;51.122;6.840;2024-01-07T10:43:57;101788.00;;;1.50;97.93
6020;BME280;3038;51.122;6.840;2024-01-07T10:46:27;101789.28;;;1.59;99.71
6020;BME280;3038;51.122;6.840;2024-01-07T10:48:59;101789.13;;;1.62;99.17
6020;BME280;3038;51.122;6.840;2024-01-07T10:51:27;101799.91;;;1.73;100.00
6020;BME280;3038;51.122;6.840;2024-01-07T10:53:53;101795.00;;;1.84;100.00
